sensor_id;sensor_type;location;lat;lon;timestamp;P1;durP1;ratioP1;P2;durP2;ratioP2
19207;SDS011;9737;59.466;18.036;2024-03-06T00:01:44;15.60;;;6.30;;
19207;SDS011;9737;59.466;18.036;2024-03-06T00:04:13;16.05;;;6.95;;
19207;SDS011;9737;59.466;18.036;2024-03-06T00:06:45;13.23;;;6.22;;
19207;SDS011;9737;59.466;18.036;2024-03-06T00:09:12;16.50;;;5.80;;
19207;SDS011;9737;59.466;18.036;2024-03-06T00:11:40;13.52;;;5.68;;
19207;SDS011;9737;59.466;18.036;2024-03-06T00:14:08;17.42;;;5.68;;
19207;SDS011;9737;59.466;18.036;2024-03-06T00:16:39;15.10;;;6.00;;
19207;SDS011;9737;59.466;18.036;2024-03-06T00:19:07;14.57;;;5.88;;
19207;SDS011;9737;59.466;18.036;2024-03-06T00:21:36;13.10;;;6.45;;
19207;SDS011;9737;59.466;18.036;2024-03-06T00:24:05;11.00;;;5.50;;
19207;SDS011;9737;59.466;18.036;2024-03-06T00:26:33;14.30;;;6.10;;
19207;SDS011;9737;59.466;18.036;2024-03-06T00:29:01;13.48;;;5.72;;
19207;SDS011;9737;59.466;18.036;2024-03-06T00:31:29;19.30;;;6.50;;
19207;SDS011;9737;59.466;18.036;2024-03-06T00:33:57;17.48;;;6.30;;
19207;SDS011;9737;59.466;18.036;2024-03-06T00:36:25;16.65;;;6.22;;
19207;SDS011;9737;59.466;18.036;2024-03-06T00:38:54;13.30;;;5.68;;
19207;SDS011;9737;59.466;18.036;2024-03-06T00:41:23;17.08;;;6.38;;
19207;SDS011;9737;59.466;18.036;2024-03-06T00:43:50;16.48;;;6.20;;
19207;SDS011;9737;59.466;18.036;2024-03-06T00:46:18;15.20;;;6.15;;
19207;SDS011;9737;59.466;18.036;2024-03-06T00:48:49;19.63;;;6.25;;
19207;SDS011;9737;59.466;18.036;2024-03-06T00:51:17;11.02;;;5.88;;
19207;SDS011;9737;59.466;18.036;2024-03-06T00:53:56;14.20;;;6.18;;
19207;SDS011;9737;59.466;18.036;2024-03-06T00:56:25;12.73;;;6.07;;
19207;SDS011;9737;59.466;18.036;2024-03-06T00:58:53;13.73;;;5.80;;
19207;SDS011;9737;59.466;18.036;2024-03-06T01:01:22;16.40;;;6.40;;
19207;SDS011;9737;59.466;18.036;2024-03-06T01:03:50;15.35;;;6.35;;
19207;SDS011;9737;59.466;18.036;2024-03-06T01:06:18;15.10;;;5.97;;
19207;SDS011;9737;59.466;18.036;2024-03-06T01:08:47;14.45;;;5.85;;
19207;SDS011;9737;59.466;18.036;2024-03-06T01:11:16;18.27;;;6.38;;
19207;SDS011;9737;59.466;18.036;2024-03-06T01:13:44;13.98;;;5.93;;
19207;SDS011;9737;59.466;18.036;2024-03-06T01:16:12;15.32;;;6.00;;
19207;SDS011;9737;59.466;18.036;2024-03-06T01:18:40;13.30;;;6.10;;
19207;SDS011;9737;59.466;18.036;2024-03-06T01:21:08;16.50;;;6.45;;
19207;SDS011;9737;59.466;18.036;2024-03-06T01:23:36;18.55;;;6.93;;
19207;SDS011;9737;59.466;18.036;2024-03-06T01:26:04;15.05;;;6.63;;
19207;SDS011;9737;59.466;18.036;2024-03-06T01:28:33;15.35;;;6.55;;
19207;SDS011;9737;59.466;18.036;2024-03-06T01:31:03;19.05;;;6.13;;
19207;SDS011;9737;59.466;18.036;2024-03-06T01:33:31;18.95;;;6.50;;
19207;SDS011;9737;59.466;18.036;2024-03-06T01:35:59;16.42;;;6.95;;
19207;SDS011;9737;59.466;18.036;2024-03-06T01:38:27;16.55;;;6.80;;
19207;SDS011;9737;59.466;18.036;2024-03-06T01:40:55;16.65;;;6.10;;
19207;SDS011;9737;59.466;18.036;2024-03-06T01:43:24;19.48;;;7.47;;
19207;SDS011;9737;59.466;18.036;2024-03-06T01:45:54;18.02;;;7.00;;
19207;SDS011;9737;59.466;18.036;2024-03-06T01:48:22;21.40;;;6.97;;
19207;SDS011;9737;59.466;18.036;2024-03-06T01:50:53;26.05;;;6.93;;
19207;SDS011;9737;59.466;18.036;2024-03-06T01:53:22;20.55;;;7.22;;
19207;SDS011;9737;59.466;18.036;2024-03-06T01:55:52;16.77;;;7.00;;
19207;SDS011;9737;59.466;18.036;2024-03-06T01:58:20;20.05;;;6.95;;
19207;SDS011;9737;59.466;18.036;2024-03-06T02:00:48;16.20;;;7.25;;
19207;SDS011;9737;59.466;18.036;2024-03-06T02:03:18;17.15;;;6.60;;
19207;SDS011;9737;59.466;18.036;2024-03-06T02:05:46;16.55;;;6.85;;
19207;SDS011;9737;59.466;18.036;2024-03-06T02:08:15;19.45;;;7.07;;
19207;SDS011;9737;59.466;18.036;2024-03-06T02:10:44;20.45;;;7.50;;
19207;SDS011;9737;59.466;18.036;2024-03-06T02:13:13;18.42;;;6.88;;
19207;SDS011;9737;59.466;18.036;2024-03-06T02:15:41;14.27;;;6.38;;
19207;SDS011;9737;59.466;18.036;2024-03-06T02:18:12;18.98;;;7.30;;
19207;SDS011;9737;59.466;18.036;2024-03-06T02:20:41;18.42;;;7.57;;
19207;SDS011;9737;59.466;18.036;2024-03-06T02:23:09;18.02;;;6.90;;
19207;SDS011;9737;59.466;18.036;2024-03-06T02:25:37;23.33;;;7.68;;
19207;SDS011;9737;59.466;18.036;2024-03-06T02:28:05;19.48;;;7.32;;
19207;SDS011;9737;59.466;18.036;2024-03-06T02:30:33;17.30;;;6.97;;
19207;SDS011;9737;59.466;18.036;2024-03-06T02:33:04;17.80;;;7.28;;
19207;SDS011;9737;59.466;18.036;2024-03-06T02:35:33;18.15;;;7.35;;
19207;SDS011;9737;59.466;18.036;2024-03-06T02:38:03;18.30;;;6.53;;
19207;SDS011;9737;59.466;18.036;2024-03-06T02:40:32;18.10;;;7.22;;
19207;SDS011;9737;59.466;18.036;2024-03-06T02:43:00;20.70;;;7.10;;
19207;SDS011;9737;59.466;18.036;2024-03-06T02:45:28;19.70;;;6.78;;
19207;SDS011;9737;59.466;18.036;2024-03-06T02:47:56;14.95;;;6.75;;
19207;SDS011;9737;59.466;18.036;2024-03-06T02:50:24;16.63;;;6.78;;
19207;SDS011;9737;59.466;18.036;2024-03-06T02:52:53;26.75;;;7.00;;
19207;SDS011;9737;59.466;18.036;2024-03-06T02:55:22;17.85;;;6.70;;
19207;SDS011;9737;59.466;18.036;2024-03-06T02:57:51;18.45;;;6.85;;
19207;SDS011;9737;59.466;18.036;2024-03-06T03:00:19;17.20;;;7.55;;
19207;SDS011;9737;59.466;18.036;2024-03-06T03:02:48;18.05;;;7.20;;
19207;SDS011;9737;59.466;18.036;2024-03-06T03:05:16;25.55;;;6.47;;
19207;SDS011;9737;59.466;18.036;2024-03-06T03:07:44;22.23;;;7.72;;
19207;SDS011;9737;59.466;18.036;2024-03-06T03:10:12;15.15;;;6.28;;
19207;SDS011;9737;59.466;18.036;2024-03-06T03:12:42;20.90;;;7.63;;
19207;SDS011;9737;59.466;18.036;2024-03-06T03:15:10;19.88;;;7.10;;
19207;SDS011;9737;59.466;18.036;2024-03-06T03:17:38;16.88;;;6.30;;
19207;SDS011;9737;59.466;18.036;2024-03-06T03:20:06;16.10;;;6.90;;
19207;SDS011;9737;59.466;18.036;2024-03-06T03:22:37;15.63;;;6.43;;
19207;SDS011;9737;59.466;18.036;2024-03-06T03:25:07;16.45;;;6.63;;
19207;SDS011;9737;59.466;18.036;2024-03-06T03:27:36;23.23;;;7.43;;
19207;SDS011;9737;59.466;18.036;2024-03-06T03:30:07;17.98;;;6.30;;
19207;SDS011;9737;59.466;18.036;2024-03-06T03:32:36;17.70;;;7.57;;
19207;SDS011;9737;59.466;18.036;2024-03-06T03:35:05;16.85;;;6.53;;
19207;SDS011;9737;59.466;18.036;2024-03-06T03:37:35;16.75;;;6.85;;
19207;SDS011;9737;59.466;18.036;2024-03-06T03:40:03;18.88;;;6.15;;
19207;SDS011;9737;59.466;18.036;2024-03-06T03:42:33;16.08;;;6.40;;
19207;SDS011;9737;59.466;18.036;2024-03-06T03:45:01;15.18;;;5.95;;
19207;SDS011;9737;59.466;18.036;2024-03-06T03:47:31;15.90;;;5.95;;
19207;SDS011;9737;59.466;18.036;2024-03-06T03:49:58;14.05;;;5.85;;
19207;SDS011;9737;59.466;18.036;2024-03-06T03:52:36;11.10;;;5.97;;
19207;SDS011;9737;59.466;18.036;2024-03-06T03:55:08;14.43;;;5.50;;
19207;SDS011;9737;59.466;18.036;2024-03-06T03:57:36;18.05;;;6.45;;
19207;SDS011;9737;59.466;18.036;2024-03-06T04:00:04;14.63;;;5.90;;
19207;SDS011;9737;59.466;18.036;2024-03-06T04:02:39;13.57;;;5.60;;
19207;SDS011;9737;59.466;18.036;2024-03-06T04:05:07;13.65;;;5.95;;
19207;SDS011;9737;59.466;18.036;2024-03-06T04:07:35;15.52;;;5.85;;
19207;SDS011;9737;59.466;18.036;2024-03-06T04:10:04;14.63;;;5.93;;
19207;SDS011;9737;59.466;18.036;2024-03-06T04:12:33;11.02;;;5.53;;
19207;SDS011;9737;59.466;18.036;2024-03-06T04:15:01;17.50;;;6.55;;
19207;SDS011;9737;59.466;18.036;2024-03-06T04:17:30;16.77;;;6.70;;
19207;SDS011;9737;59.466;18.036;2024-03-06T04:20:01;14.18;;;6.63;;
19207;SDS011;9737;59.466;18.036;2024-03-06T04:22:29;15.43;;;6.13;;
19207;SDS011;9737;59.466;18.036;2024-03-06T04:24:57;13.95;;;6.25;;
19207;SDS011;9737;59.466;18.036;2024-03-06T04:27:25;19.88;;;6.35;;
19207;SDS011;9737;59.466;18.036;2024-03-06T04:29:53;23.17;;;7.28;;
19207;SDS011;9737;59.466;18.036;2024-03-06T04:32:21;11.80;;;5.65;;
19207;SDS011;9737;59.466;18.036;2024-03-06T04:34:49;14.82;;;6.47;;
19207;SDS011;9737;59.466;18.036;2024-03-06T04:37:18;13.75;;;5.50;;
19207;SDS011;9737;59.466;18.036;2024-03-06T04:39:46;21.63;;;6.32;;
19207;SDS011;9737;59.466;18.036;2024-03-06T04:42:15;9.55;;;5.40;;
19207;SDS011;9737;59.466;18.036;2024-03-06T04:44:43;16.67;;;6.50;;
19207;SDS011;9737;59.466;18.036;2024-03-06T04:47:15;15.32;;;6.90;;
19207;SDS011;9737;59.466;18.036;2024-03-06T04:49:43;14.60;;;6.38;;
19207;SDS011;9737;59.466;18.036;2024-03-06T04:52:10;13.38;;;6.00;;
19207;SDS011;9737;59.466;18.036;2024-03-06T04:54:40;17.83;;;6.30;;
19207;SDS011;9737;59.466;18.036;2024-03-06T04:57:07;20.95;;;6.40;;
19207;SDS011;9737;59.466;18.036;2024-03-06T04:59:35;17.83;;;6.70;;
19207;SDS011;9737;59.466;18.036;2024-03-06T05:02:03;21.88;;;6.55;;
19207;SDS011;9737;59.466;18.036;2024-03-06T05:04:31;16.15;;;5.78;;
19207;SDS011;9737;59.466;18.036;2024-03-06T05:07:17;14.70;;;5.57;;
19207;SDS011;9737;59.466;18.036;2024-03-06T05:10:04;14.23;;;5.95;;
19207;SDS011;9737;59.466;18.036;2024-03-06T05:12:51;21.55;;;6.43;;
19207;SDS011;9737;59.466;18.036;2024-03-06T05:15:37;18.08;;;6.65;;
19207;SDS011;9737;59.466;18.036;2024-03-06T05:18:23;16.10;;;6.20;;
19207;SDS011;9737;59.466;18.036;2024-03-06T05:21:09;19.70;;;6.28;;
19207;SDS011;9737;59.466;18.036;2024-03-06T05:23:55;10.50;;;5.70;;
19207;SDS011;9737;59.466;18.036;2024-03-06T05:26:42;17.52;;;5.88;;
19207;SDS011;9737;59.466;18.036;2024-03-06T05:29:28;19.83;;;6.78;;
19207;SDS011;9737;59.466;18.036;2024-03-06T05:32:13;14.93;;;6.10;;
19207;SDS011;9737;59.466;18.036;2024-03-06T05:34:58;12.98;;;5.43;;
19207;SDS011;9737;59.466;18.036;2024-03-06T05:37:43;17.20;;;5.82;;
19207;SDS011;9737;59.466;18.036;2024-03-06T05:40:29;13.25;;;5.68;;
19207;SDS011;9737;59.466;18.036;2024-03-06T05:43:20;14.10;;;5.95;;
19207;SDS011;9737;59.466;18.036;2024-03-06T05:46:05;13.75;;;5.50;;
19207;SDS011;9737;59.466;18.036;2024-03-06T05:48:50;15.48;;;5.82;;
19207;SDS011;9737;59.466;18.036;2024-03-06T05:51:36;19.10;;;6.47;;
19207;SDS011;9737;59.466;18.036;2024-03-06T05:54:22;20.55;;;6.63;;
19207;SDS011;9737;59.466;18.036;2024-03-06T05:57:08;13.27;;;5.63;;
19207;SDS011;9737;59.466;18.036;2024-03-06T05:59:55;14.45;;;6.22;;
19207;SDS011;9737;59.466;18.036;2024-03-06T06:02:23;19.73;;;6.93;;
19207;SDS011;9737;59.466;18.036;2024-03-06T06:04:51;12.43;;;6.30;;
19207;SDS011;9737;59.466;18.036;2024-03-06T06:07:37;15.52;;;6.05;;
19207;SDS011;9737;59.466;18.036;2024-03-06T06:10:05;16.05;;;7.20;;
19207;SDS011;9737;59.466;18.036;2024-03-06T06:12:36;17.15;;;6.28;;
19207;SDS011;9737;59.466;18.036;2024-03-06T06:15:06;14.40;;;6.43;;
19207;SDS011;9737;59.466;18.036;2024-03-06T06:17:34;16.15;;;6.85;;
19207;SDS011;9737;59.466;18.036;2024-03-06T06:20:05;21.85;;;6.90;;
19207;SDS011;9737;59.466;18.036;2024-03-06T06:22:36;16.88;;;6.43;;
19207;SDS011;9737;59.466;18.036;2024-03-06T06:25:04;20.98;;;6.93;;
19207;SDS011;9737;59.466;18.036;2024-03-06T06:27:33;17.48;;;8.05;;
19207;SDS011;9737;59.466;18.036;2024-03-06T06:30:01;17.15;;;7.45;;
19207;SDS011;9737;59.466;18.036;2024-03-06T06:32:34;15.95;;;7.60;;
19207;SDS011;9737;59.466;18.036;2024-03-06T06:35:02;18.15;;;7.35;;
19207;SDS011;9737;59.466;18.036;2024-03-06T06:37:30;14.82;;;7.25;;
19207;SDS011;9737;59.466;18.036;2024-03-06T06:39:58;16.13;;;7.45;;
19207;SDS011;9737;59.466;18.036;2024-03-06T06:42:28;20.40;;;8.13;;
19207;SDS011;9737;59.466;18.036;2024-03-06T06:44:56;24.27;;;7.75;;
19207;SDS011;9737;59.466;18.036;2024-03-06T06:47:24;19.45;;;7.70;;
19207;SDS011;9737;59.466;18.036;2024-03-06T06:49:53;20.55;;;7.93;;
19207;SDS011;9737;59.466;18.036;2024-03-06T06:52:21;20.20;;;7.30;;
19207;SDS011;9737;59.466;18.036;2024-03-06T06:54:49;18.17;;;7.30;;
19207;SDS011;9737;59.466;18.036;2024-03-06T06:57:17;16.02;;;7.05;;
19207;SDS011;9737;59.466;18.036;2024-03-06T06:59:46;20.08;;;7.88;;
19207;SDS011;9737;59.466;18.036;2024-03-06T07:02:14;18.13;;;7.10;;
19207;SDS011;9737;59.466;18.036;2024-03-06T07:04:42;15.52;;;6.32;;
19207;SDS011;9737;59.466;18.036;2024-03-06T07:07:11;14.98;;;6.68;;
19207;SDS011;9737;59.466;18.036;2024-03-06T07:09:40;16.83;;;6.55;;
19207;SDS011;9737;59.466;18.036;2024-03-06T07:12:08;14.40;;;6.55;;
19207;SDS011;9737;59.466;18.036;2024-03-06T07:14:36;13.85;;;6.78;;
19207;SDS011;9737;59.466;18.036;2024-03-06T07:17:04;19.05;;;6.90;;
19207;SDS011;9737;59.466;18.036;2024-03-06T07:19:32;14.63;;;6.05;;
19207;SDS011;9737;59.466;18.036;2024-03-06T07:22:00;13.95;;;5.82;;
19207;SDS011;9737;59.466;18.036;2024-03-06T07:24:30;12.43;;;5.78;;
19207;SDS011;9737;59.466;18.036;2024-03-06T07:27:01;10.48;;;5.63;;
19207;SDS011;9737;59.466;18.036;2024-03-06T07:29:29;20.73;;;5.93;;
19207;SDS011;9737;59.466;18.036;2024-03-06T07:31:57;10.00;;;5.18;;
19207;SDS011;9737;59.466;18.036;2024-03-06T07:34:24;13.10;;;5.28;;
19207;SDS011;9737;59.466;18.036;2024-03-06T07:36:53;10.90;;;5.18;;
19207;SDS011;9737;59.466;18.036;2024-03-06T07:39:21;11.07;;;4.75;;
19207;SDS011;9737;59.466;18.036;2024-03-06T07:41:50;9.95;;;5.07;;
19207;SDS011;9737;59.466;18.036;2024-03-06T07:44:18;11.88;;;5.53;;
19207;SDS011;9737;59.466;18.036;2024-03-06T07:46:47;9.48;;;4.93;;
19207;SDS011;9737;59.466;18.036;2024-03-06T07:49:15;18.45;;;4.88;;
19207;SDS011;9737;59.466;18.036;2024-03-06T07:51:43;8.48;;;4.55;;
19207;SDS011;9737;59.466;18.036;2024-03-06T07:54:10;7.85;;;4.20;;
19207;SDS011;9737;59.466;18.036;2024-03-06T07:56:39;7.85;;;4.20;;
19207;SDS011;9737;59.466;18.036;2024-03-06T07:59:08;9.55;;;4.63;;
19207;SDS011;9737;59.466;18.036;2024-03-06T08:01:39;9.15;;;5.18;;
19207;SDS011;9737;59.466;18.036;2024-03-06T08:04:07;16.40;;;4.50;;
19207;SDS011;9737;59.466;18.036;2024-03-06T08:06:34;11.80;;;5.00;;
19207;SDS011;9737;59.466;18.036;2024-03-06T08:09:04;9.57;;;4.32;;
19207;SDS011;9737;59.466;18.036;2024-03-06T08:11:33;12.35;;;4.10;;
19207;SDS011;9737;59.466;18.036;2024-03-06T08:14:01;9.15;;;4.53;;
19207;SDS011;9737;59.466;18.036;2024-03-06T08:16:30;9.85;;;3.97;;
19207;SDS011;9737;59.466;18.036;2024-03-06T08:19:02;7.53;;;4.03;;
19207;SDS011;9737;59.466;18.036;2024-03-06T08:21:30;10.07;;;4.40;;
19207;SDS011;9737;59.466;18.036;2024-03-06T08:23:58;11.90;;;4.22;;
19207;SDS011;9737;59.466;18.036;2024-03-06T08:26:26;9.82;;;3.92;;
19207;SDS011;9737;59.466;18.036;2024-03-06T08:28:54;10.45;;;4.13;;
19207;SDS011;9737;59.466;18.036;2024-03-06T08:31:22;7.63;;;3.72;;
19207;SDS011;9737;59.466;18.036;2024-03-06T08:33:53;11.15;;;4.22;;
19207;SDS011;9737;59.466;18.036;2024-03-06T08:36:21;9.60;;;3.80;;
19207;SDS011;9737;59.466;18.036;2024-03-06T08:38:50;10.57;;;4.05;;
19207;SDS011;9737;59.466;18.036;2024-03-06T08:41:18;9.88;;;3.92;;
19207;SDS011;9737;59.466;18.036;2024-03-06T08:43:46;10.60;;;4.20;;
19207;SDS011;9737;59.466;18.036;2024-03-06T08:46:14;8.60;;;4.15;;
19207;SDS011;9737;59.466;18.036;2024-03-06T08:48:42;9.35;;;4.15;;
19207;SDS011;9737;59.466;18.036;2024-03-06T08:51:12;12.05;;;4.50;;
19207;SDS011;9737;59.466;18.036;2024-03-06T08:53:40;9.02;;;4.20;;
19207;SDS011;9737;59.466;18.036;2024-03-06T08:56:08;10.00;;;4.47;;
19207;SDS011;9737;59.466;18.036;2024-03-06T08:58:36;12.77;;;4.15;;
19207;SDS011;9737;59.466;18.036;2024-03-06T09:01:04;11.30;;;4.20;;
19207;SDS011;9737;59.466;18.036;2024-03-06T09:03:32;9.77;;;4.32;;
19207;SDS011;9737;59.466;18.036;2024-03-06T09:06:00;8.32;;;4.10;;
19207;SDS011;9737;59.466;18.036;2024-03-06T09:08:30;14.45;;;3.85;;
19207;SDS011;9737;59.466;18.036;2024-03-06T09:10:58;14.93;;;4.50;;
19207;SDS011;9737;59.466;18.036;2024-03-06T09:13:26;7.43;;;3.88;;
19207;SDS011;9737;59.466;18.036;2024-03-06T09:15:54;6.18;;;3.88;;
19207;SDS011;9737;59.466;18.036;2024-03-06T09:18:22;9.30;;;3.85;;
19207;SDS011;9737;59.466;18.036;2024-03-06T09:20:50;6.60;;;3.75;;
19207;SDS011;9737;59.466;18.036;2024-03-06T09:23:18;10.65;;;3.78;;
19207;SDS011;9737;59.466;18.036;2024-03-06T09:25:47;7.38;;;3.78;;
19207;SDS011;9737;59.466;18.036;2024-03-06T09:28:15;9.38;;;3.70;;
19207;SDS011;9737;59.466;18.036;2024-03-06T09:30:43;7.45;;;3.40;;
19207;SDS011;9737;59.466;18.036;2024-03-06T09:33:12;7.57;;;4.00;;
19207;SDS011;9737;59.466;18.036;2024-03-06T09:35:40;8.68;;;3.45;;
19207;SDS011;9737;59.466;18.036;2024-03-06T09:38:12;9.43;;;4.40;;
19207;SDS011;9737;59.466;18.036;2024-03-06T09:40:45;6.72;;;3.78;;
19207;SDS011;9737;59.466;18.036;2024-03-06T09:43:14;12.45;;;4.55;;
19207;SDS011;9737;59.466;18.036;2024-03-06T09:45:42;8.95;;;4.20;;
19207;SDS011;9737;59.466;18.036;2024-03-06T09:48:13;13.25;;;3.70;;
19207;SDS011;9737;59.466;18.036;2024-03-06T09:50:42;8.27;;;2.90;;
19207;SDS011;9737;59.466;18.036;2024-03-06T09:53:12;7.65;;;3.17;;
19207;SDS011;9737;59.466;18.036;2024-03-06T09:55:43;6.32;;;3.53;;
19207;SDS011;9737;59.466;18.036;2024-03-06T09:58:15;10.10;;;3.80;;
19207;SDS011;9737;59.466;18.036;2024-03-06T10:00:43;9.32;;;3.72;;
19207;SDS011;9737;59.466;18.036;2024-03-06T10:03:13;16.27;;;3.47;;
19207;SDS011;9737;59.466;18.036;2024-03-06T10:05:41;17.13;;;3.42;;
19207;SDS011;9737;59.466;18.036;2024-03-06T10:08:09;29.83;;;4.32;;
19207;SDS011;9737;59.466;18.036;2024-03-06T10:10:37;10.80;;;4.05;;
19207;SDS011;9737;59.466;18.036;2024-03-06T10:13:05;10.25;;;3.00;;
19207;SDS011;9737;59.466;18.036;2024-03-06T10:15:34;19.13;;;3.13;;
19207;SDS011;9737;59.466;18.036;2024-03-06T10:18:13;7.90;;;3.47;;
19207;SDS011;9737;59.466;18.036;2024-03-06T10:20:44;8.60;;;3.20;;
19207;SDS011;9737;59.466;18.036;2024-03-06T10:23:12;49.17;;;5.28;;
19207;SDS011;9737;59.466;18.036;2024-03-06T10:25:42;6.15;;;3.08;;
19207;SDS011;9737;59.466;18.036;2024-03-06T10:28:11;15.88;;;3.40;;
19207;SDS011;9737;59.466;18.036;2024-03-06T10:30:41;7.85;;;3.40;;
19207;SDS011;9737;59.466;18.036;2024-03-06T10:33:10;6.18;;;3.20;;
19207;SDS011;9737;59.466;18.036;2024-03-06T10:35:39;5.07;;;3.00;;
19207;SDS011;9737;59.466;18.036;2024-03-06T10:38:09;4.32;;;2.65;;
19207;SDS011;9737;59.466;18.036;2024-03-06T10:40:38;6.40;;;3.00;;
19207;SDS011;9737;59.466;18.036;2024-03-06T10:43:08;9.05;;;2.53;;
19207;SDS011;9737;59.466;18.036;2024-03-06T10:45:41;9.88;;;2.78;;
19207;SDS011;9737;59.466;18.036;2024-03-06T10:48:14;35.25;;;3.72;;
19207;SDS011;9737;59.466;18.036;2024-03-06T10:50:44;5.88;;;2.80;;
19207;SDS011;9737;59.466;18.036;2024-03-06T10:53:13;10.98;;;2.35;;
19207;SDS011;9737;59.466;18.036;2024-03-06T10:55:47;5.18;;;2.35;;
19207;SDS011;9737;59.466;18.036;2024-03-06T10:58:17;4.22;;;1.95;;
19207;SDS011;9737;59.466;18.036;2024-03-06T11:00:48;5.78;;;2.17;;
19207;SDS011;9737;59.466;18.036;2024-03-06T11:03:18;7.10;;;2.15;;
19207;SDS011;9737;59.466;18.036;2024-03-06T11:05:47;10.18;;;2.30;;
19207;SDS011;9737;59.466;18.036;2024-03-06T11:08:17;48.05;;;4.05;;
19207;SDS011;9737;59.466;18.036;2024-03-06T11:10:46;10.10;;;2.75;;
19207;SDS011;9737;59.466;18.036;2024-03-06T11:13:20;5.60;;;1.95;;
19207;SDS011;9737;59.466;18.036;2024-03-06T11:15:51;19.52;;;2.45;;
19207;SDS011;9737;59.466;18.036;2024-03-06T11:21:27;6.78;;;2.53;;
19207;SDS011;9737;59.466;18.036;2024-03-06T11:26:45;7.85;;;2.60;;
19207;SDS011;9737;59.466;18.036;2024-03-06T11:29:18;5.95;;;2.45;;
19207;SDS011;9737;59.466;18.036;2024-03-06T11:32:04;11.18;;;2.40;;
19207;SDS011;9737;59.466;18.036;2024-03-06T11:34:35;14.63;;;2.63;;
19207;SDS011;9737;59.466;18.036;2024-03-06T11:37:05;29.85;;;3.30;;
19207;SDS011;9737;59.466;18.036;2024-03-06T11:39:36;7.30;;;2.70;;
19207;SDS011;9737;59.466;18.036;2024-03-06T11:42:08;7.57;;;2.25;;
19207;SDS011;9737;59.466;18.036;2024-03-06T11:44:36;8.00;;;2.05;;
19207;SDS011;9737;59.466;18.036;2024-03-06T11:47:06;7.07;;;1.92;;
19207;SDS011;9737;59.466;18.036;2024-03-06T11:49:36;6.22;;;1.88;;
19207;SDS011;9737;59.466;18.036;2024-03-06T11:52:05;6.63;;;1.90;;
19207;SDS011;9737;59.466;18.036;2024-03-06T11:54:36;3.53;;;1.95;;
19207;SDS011;9737;59.466;18.036;2024-03-06T11:57:05;13.32;;;2.20;;
19207;SDS011;9737;59.466;18.036;2024-03-06T11:59:34;10.13;;;2.58;;
19207;SDS011;9737;59.466;18.036;2024-03-06T12:02:06;5.30;;;2.00;;
19207;SDS011;9737;59.466;18.036;2024-03-06T12:04:36;10.18;;;2.30;;
19207;SDS011;9737;59.466;18.036;2024-03-06T12:07:06;6.10;;;1.98;;
19207;SDS011;9737;59.466;18.036;2024-03-06T12:09:38;6.53;;;2.10;;
19207;SDS011;9737;59.466;18.036;2024-03-06T12:12:09;11.27;;;2.30;;
19207;SDS011;9737;59.466;18.036;2024-03-06T12:14:39;8.95;;;2.30;;
19207;SDS011;9737;59.466;18.036;2024-03-06T12:17:12;7.00;;;2.33;;
19207;SDS011;9737;59.466;18.036;2024-03-06T12:19:42;7.93;;;2.00;;
19207;SDS011;9737;59.466;18.036;2024-03-06T12:22:12;5.32;;;2.00;;
19207;SDS011;9737;59.466;18.036;2024-03-06T12:24:41;5.22;;;2.17;;
19207;SDS011;9737;59.466;18.036;2024-03-06T12:27:09;8.65;;;2.03;;
19207;SDS011;9737;59.466;18.036;2024-03-06T12:29:39;10.40;;;2.33;;
19207;SDS011;9737;59.466;18.036;2024-03-06T12:32:16;8.85;;;2.90;;
19207;SDS011;9737;59.466;18.036;2024-03-06T12:34:55;15.50;;;2.53;;
19207;SDS011;9737;59.466;18.036;2024-03-06T12:37:28;9.32;;;2.30;;
19207;SDS011;9737;59.466;18.036;2024-03-06T12:40:01;9.15;;;2.78;;
19207;SDS011;9737;59.466;18.036;2024-03-06T12:42:31;29.55;;;3.45;;
19207;SDS011;9737;59.466;18.036;2024-03-06T12:45:00;8.38;;;2.70;;
19207;SDS011;9737;59.466;18.036;2024-03-06T12:47:31;9.73;;;2.83;;
19207;SDS011;9737;59.466;18.036;2024-03-06T12:49:59;10.57;;;2.55;;
19207;SDS011;9737;59.466;18.036;2024-03-06T12:52:27;8.05;;;2.40;;
19207;SDS011;9737;59.466;18.036;2024-03-06T12:54:55;10.13;;;2.28;;
19207;SDS011;9737;59.466;18.036;2024-03-06T12:57:23;10.70;;;2.40;;
19207;SDS011;9737;59.466;18.036;2024-03-06T12:59:51;17.08;;;2.30;;
19207;SDS011;9737;59.466;18.036;2024-03-06T13:02:19;7.38;;;2.63;;
19207;SDS011;9737;59.466;18.036;2024-03-06T13:04:48;14.77;;;2.50;;
19207;SDS011;9737;59.466;18.036;2024-03-06T13:07:16;41.13;;;3.25;;
19207;SDS011;9737;59.466;18.036;2024-03-06T13:09:44;10.85;;;2.70;;
19207;SDS011;9737;59.466;18.036;2024-03-06T13:12:12;11.48;;;2.47;;
19207;SDS011;9737;59.466;18.036;2024-03-06T13:14:40;25.55;;;3.75;;
19207;SDS011;9737;59.466;18.036;2024-03-06T13:17:08;13.02;;;2.75;;
19207;SDS011;9737;59.466;18.036;2024-03-06T13:19:35;11.10;;;2.40;;
19207;SDS011;9737;59.466;18.036;2024-03-06T13:22:05;11.63;;;2.70;;
19207;SDS011;9737;59.466;18.036;2024-03-06T13:24:34;9.63;;;2.50;;
19207;SDS011;9737;59.466;18.036;2024-03-06T13:27:07;10.40;;;2.42;;
19207;SDS011;9737;59.466;18.036;2024-03-06T13:29:35;6.57;;;2.38;;
19207;SDS011;9737;59.466;18.036;2024-03-06T13:32:03;10.85;;;2.70;;
19207;SDS011;9737;59.466;18.036;2024-03-06T13:34:31;12.45;;;2.40;;
19207;SDS011;9737;59.466;18.036;2024-03-06T13:36:59;16.55;;;2.60;;
19207;SDS011;9737;59.466;18.036;2024-03-06T13:39:28;10.45;;;2.38;;
19207;SDS011;9737;59.466;18.036;2024-03-06T13:41:56;6.70;;;2.80;;
19207;SDS011;9737;59.466;18.036;2024-03-06T13:44:24;15.48;;;2.42;;
19207;SDS011;9737;59.466;18.036;2024-03-06T13:46:52;109.63;;;6.20;;
19207;SDS011;9737;59.466;18.036;2024-03-06T13:49:33;29.25;;;3.75;;
19207;SDS011;9737;59.466;18.036;2024-03-06T13:52:03;7.53;;;2.38;;
19207;SDS011;9737;59.466;18.036;2024-03-06T13:54:33;16.33;;;3.58;;
19207;SDS011;9737;59.466;18.036;2024-03-06T13:57:01;16.38;;;2.90;;
19207;SDS011;9737;59.466;18.036;2024-03-06T13:59:30;27.85;;;2.85;;
19207;SDS011;9737;59.466;18.036;2024-03-06T14:01:59;8.68;;;2.40;;
19207;SDS011;9737;59.466;18.036;2024-03-06T14:04:27;20.42;;;2.90;;
19207;SDS011;9737;59.466;18.036;2024-03-06T14:06:55;29.33;;;3.47;;
19207;SDS011;9737;59.466;18.036;2024-03-06T14:09:25;33.08;;;3.10;;
19207;SDS011;9737;59.466;18.036;2024-03-06T14:11:55;6.43;;;2.17;;
19207;SDS011;9737;59.466;18.036;2024-03-06T14:14:23;5.13;;;2.15;;
19207;SDS011;9737;59.466;18.036;2024-03-06T14:16:51;11.80;;;2.45;;
19207;SDS011;9737;59.466;18.036;2024-03-06T14:19:19;5.88;;;2.00;;
19207;SDS011;9737;59.466;18.036;2024-03-06T14:21:48;16.33;;;2.13;;
19207;SDS011;9737;59.466;18.036;2024-03-06T14:24:15;11.13;;;2.20;;
19207;SDS011;9737;59.466;18.036;2024-03-06T14:26:44;30.88;;;3.53;;
19207;SDS011;9737;59.466;18.036;2024-03-06T14:29:14;13.52;;;2.50;;
19207;SDS011;9737;59.466;18.036;2024-03-06T14:31:42;59.83;;;4.63;;
19207;SDS011;9737;59.466;18.036;2024-03-06T14:34:10;9.25;;;2.28;;
19207;SDS011;9737;59.466;18.036;2024-03-06T14:36:38;21.58;;;2.10;;
19207;SDS011;9737;59.466;18.036;2024-03-06T14:39:08;15.18;;;2.10;;
19207;SDS011;9737;59.466;18.036;2024-03-06T14:41:37;6.15;;;2.00;;
19207;SDS011;9737;59.466;18.036;2024-03-06T14:44:05;11.63;;;2.60;;
19207;SDS011;9737;59.466;18.036;2024-03-06T14:46:34;9.65;;;2.42;;
19207;SDS011;9737;59.466;18.036;2024-03-06T14:49:02;6.63;;;2.20;;
19207;SDS011;9737;59.466;18.036;2024-03-06T14:51:31;8.48;;;2.17;;
19207;SDS011;9737;59.466;18.036;2024-03-06T14:53:59;21.58;;;2.90;;
19207;SDS011;9737;59.466;18.036;2024-03-06T14:56:27;23.00;;;3.03;;
19207;SDS011;9737;59.466;18.036;2024-03-06T14:58:57;80.40;;;5.05;;
19207;SDS011;9737;59.466;18.036;2024-03-06T15:01:25;79.65;;;4.70;;